Terminal Aerodrome Forecast
Issued by NWS Jackson, MS

Home | Current Version | Previous Version | Text Only | Print | Product List | Glossary On
Versions: 1 2 3 4 5 6 7 8 9 10 11 12 13 14 15
000
FTUS44 KJAN 031937 AAA
TAFGLH
TAF AMD
KGLH 031937Z 0320/0418 25010KT P6SM SCT040 BKN150
     FM032200 21006KT 3SM TSRA SCT020 BKN030CB
     FM040300 21008KT 5SM -SHRA VCTS BKN040CB
     FM041200 24008KT P6SM BKN060=

USA.gov is the U.S. government's official web portal to all federal, state and local government web resources and services.